Time;durP1;ratioP1;P1;durP2;ratioP2;P2;SDS_P1;SDS_P2;PMS_P1;PMS_P2;Temp;Humidity;BMP_temperature;BMP_pressure;BME280_temperature;BME280_humidity;BME280_pressure;Samples;Min_cycle;Max_cycle;Signal;HPM_P1;HPM_P2
2022/05/29 00:02:05;;;;;;;12.80;4.67;;;9.10;99.90;;;;;;5131005;27;20229;-79
2022/05/29 00:04:32;;;;;;;13.77;5.13;;;9.10;99.90;;;;;;5120699;27;20859;-80
2022/05/29 00:06:59;;;;;;;11.43;4.43;;;9.00;99.90;;;;;;5110438;27;20226;-80
2022/05/29 00:09:31;;;;;;;8.60;4.30;;;9.00;99.90;;;;;;5105937;28;20766;-79
2022/05/29 00:12:00;;;;;;;13.33;4.87;;;9.00;99.90;;;;;;5129576;27;20219;-80
2022/05/29 00:14:27;;;;;;;16.33;4.77;;;9.00;99.90;;;;;;5105648;27;20223;-81
2022/05/29 00:16:53;;;;;;;13.80;4.77;;;9.00;99.90;;;;;;5104530;27;20306;-79
2022/05/29 00:19:20;;;;;;;11.53;4.57;;;9.00;99.90;;;;;;5101975;27;20306;-79
2022/05/29 00:21:47;;;;;;;13.27;4.97;;;9.00;99.90;;;;;;5105032;27;20642;-80
2022/05/29 00:24:15;;;;;;;13.13;4.67;;;9.00;99.90;;;;;;5099763;27;20441;-78
2022/05/29 00:26:42;;;;;;;12.93;5.33;;;9.00;99.90;;;;;;5106193;27;20305;-79
2022/05/29 00:29:10;;;;;;;16.87;4.47;;;9.00;99.90;;;;;;5120627;27;20232;-79
2022/05/29 00:31:37;;;;;;;14.13;4.57;;;9.00;99.90;;;;;;5101238;27;20265;-79
2022/05/29 00:34:04;;;;;;;11.53;4.20;;;9.00;99.90;;;;;;5122204;27;20314;-79
2022/05/29 00:36:35;;;;;;;11.90;4.47;;;9.00;99.90;;;;;;5104316;27;20643;-80
2022/05/29 00:39:02;;;;;;;16.93;4.57;;;9.10;99.90;;;;;;5107034;27;20312;-79
2022/05/29 00:41:32;;;;;;;12.57;4.53;;;9.10;99.90;;;;;;5105410;27;20227;-79
2022/05/29 00:44:14;;;;;;;13.00;4.43;;;9.00;99.90;;;;;;5104686;27;20240;-79
2022/05/29 00:46:44;;;;;;;14.47;4.93;;;9.10;99.90;;;;;;5123472;27;20236;-79
2022/05/29 00:49:12;;;;;;;14.07;4.60;;;9.10;99.90;;;;;;5108008;27;20232;-79
2022/05/29 00:51:44;;;;;;;10.20;4.57;;;9.10;99.90;;;;;;5108472;27;20775;-79
2022/05/29 00:54:15;;;;;;;13.03;4.13;;;9.10;99.90;;;;;;5121316;27;20682;-79
2022/05/29 00:56:42;;;;;;;10.73;4.30;;;9.10;99.90;;;;;;5124491;27;20944;-81
2022/05/29 00:59:14;;;;;;;10.70;4.37;;;9.10;99.90;;;;;;5126324;27;20234;-80
2022/05/29 01:01:42;;;;;;;12.03;4.47;;;9.10;99.90;;;;;;5105346;27;20228;-81
2022/05/29 01:04:10;;;;;;;11.77;4.30;;;9.10;99.90;;;;;;5120276;27;20233;-81
2022/05/29 01:06:37;;;;;;;14.30;5.10;;;9.10;99.90;;;;;;5106755;27;20248;-81
2022/05/29 01:09:06;;;;;;;14.93;4.50;;;9.10;99.90;;;;;;5120664;27;20320;-81
2022/05/29 01:11:46;;;;;;;10.37;5.07;;;9.10;99.90;;;;;;5109006;27;20678;-81
2022/05/29 01:14:23;;;;;;;15.20;4.63;;;9.10;99.90;;;;;;5104403;27;20258;-81
2022/05/29 01:17:00;;;;;;;18.13;4.80;;;9.10;99.90;;;;;;5117899;27;20574;-80
2022/05/29 01:20:02;;;;;;;13.37;5.00;;;9.10;99.90;;;;;;5105877;27;20693;-80
2022/05/29 01:23:00;;;;;;;14.40;4.50;;;9.10;99.90;;;;;;5103300;27;20723;-80
2022/05/29 01:25:54;;;;;;;16.30;5.13;;;9.10;99.90;;;;;;5124211;27;20277;-79
2022/05/29 01:28:44;;;;;;;13.50;4.57;;;9.10;99.90;;;;;;5107824;27;20244;-79
2022/05/29 01:31:19;;;;;;;15.17;5.70;;;9.10;99.90;;;;;;5102032;27;20228;-79
2022/05/29 01:33:52;;;;;;;17.73;5.23;;;9.10;99.90;;;;;;5103028;27;20232;-79
2022/05/29 01:36:31;;;;;;;14.23;4.93;;;9.10;99.90;;;;;;5125566;27;20220;-79
2022/05/29 01:39:01;;;;;;;14.60;4.63;;;9.10;99.90;;;;;;5107229;27;20234;-79
2022/05/29 01:41:36;;;;;;;14.80;4.87;;;9.10;99.90;;;;;;5102526;27;20271;-77
2022/05/29 01:44:12;;;;;;;15.90;4.70;;;9.10;99.90;;;;;;5103586;27;20262;-79
2022/05/29 01:46:41;;;;;;;13.50;4.30;;;9.10;99.90;;;;;;5120054;27;20313;-78
2022/05/29 01:49:17;;;;;;;13.43;4.50;;;9.10;99.90;;;;;;5116609;27;20266;-79
2022/05/29 01:51:49;;;;;;;11.57;4.97;;;9.10;99.90;;;;;;5103803;27;20247;-78
2022/05/29 01:54:21;;;;;;;14.00;4.67;;;9.10;99.90;;;;;;5119674;27;20228;-79
2022/05/29 01:56:51;;;;;;;15.20;4.33;;;9.10;99.90;;;;;;5123870;27;20234;-78
2022/05/29 01:59:24;;;;;;;21.63;4.70;;;9.10;99.90;;;;;;5119045;27;20406;-78
2022/05/29 02:01:57;;;;;;;18.50;5.13;;;9.10;99.90;;;;;;5123036;27;20273;-79
2022/05/29 02:04:27;;;;;;;16.17;5.07;;;9.10;99.90;;;;;;5121859;27;20796;-79
2022/05/29 02:09:46;;;;;;;13.17;4.47;;;9.10;99.90;;;;;;5108290;27;20231;-79
2022/05/29 02:12:17;;;;;;;10.80;4.10;;;9.10;99.90;;;;;;5110836;27;20225;-78
2022/05/29 02:14:52;;;;;;;18.83;4.67;;;9.10;99.90;;;;;;5106925;27;20233;-79
2022/05/29 02:17:22;;;;;;;17.00;4.67;;;9.10;99.90;;;;;;5122659;27;20251;-79
2022/05/29 02:19:53;;;;;;;16.23;4.50;;;9.10;99.90;;;;;;5121595;27;20232;-80
2022/05/29 02:22:27;;;;;;;14.37;4.90;;;9.10;99.90;;;;;;5110774;27;20917;-80
2022/05/29 02:24:58;;;;;;;16.20;4.80;;;9.10;99.90;;;;;;5102248;27;20219;-80
2022/05/29 02:27:29;;;;;;;11.17;4.47;;;9.10;99.90;;;;;;5108017;27;20317;-79
2022/05/29 02:29:59;;;;;;;15.03;4.17;;;9.10;99.90;;;;;;5102804;28;20255;-79
2022/05/29 02:32:33;;;;;;;14.07;4.33;;;9.10;99.90;;;;;;5121521;27;20248;-79
2022/05/29 02:35:06;;;;;;;12.90;4.83;;;9.10;99.90;;;;;;5120526;27;20303;-79
2022/05/29 02:37:40;;;;;;;13.70;4.23;;;9.10;99.90;;;;;;5121068;27;20240;-79
2022/05/29 02:40:16;;;;;;;13.63;4.83;;;9.10;99.90;;;;;;5112172;27;20684;-79
2022/05/29 02:42:54;;;;;;;12.50;4.73;;;9.10;99.90;;;;;;5105637;28;20269;-79
2022/05/29 02:45:31;;;;;;;14.13;4.60;;;9.10;99.90;;;;;;5118857;27;20698;-79
2022/05/29 02:48:06;;;;;;;16.60;4.50;;;9.10;99.90;;;;;;5119442;27;20714;-79
2022/05/29 02:50:40;;;;;;;14.03;3.97;;;9.10;99.90;;;;;;5118250;27;20216;-79
2022/05/29 02:53:13;;;;;;;20.60;4.53;;;9.10;99.90;;;;;;5118673;27;20314;-79
2022/05/29 02:55:42;;;;;;;16.20;5.00;;;9.10;99.90;;;;;;5114392;27;20754;-81
2022/05/29 02:58:18;;;;;;;15.20;5.00;;;9.10;99.90;;;;;;5103206;27;20289;-80
2022/05/29 03:00:57;;;;;;;12.30;4.00;;;9.10;99.90;;;;;;5117383;27;20227;-81
2022/05/29 03:03:31;;;;;;;16.90;4.53;;;9.10;99.90;;;;;;5095425;28;20224;-81
2022/05/29 03:06:15;;;;;;;14.37;4.53;;;9.10;99.90;;;;;;5104512;28;20307;-79
2022/05/29 03:08:57;;;;;;;13.87;4.07;;;9.10;99.90;;;;;;5101698;28;20604;-80
2022/05/29 03:11:33;;;;;;;18.87;4.67;;;9.10;99.90;;;;;;5103106;27;20228;-79
2022/05/29 03:14:05;;;;;;;16.67;4.97;;;9.20;99.90;;;;;;5123224;27;20723;-78
2022/05/29 03:16:43;;;;;;;14.10;4.23;;;9.10;99.90;;;;;;5100993;28;20733;-79
2022/05/29 03:19:21;;;;;;;17.00;4.70;;;9.20;99.90;;;;;;5103831;28;20249;-80
2022/05/29 03:21:54;;;;;;;15.27;5.23;;;9.20;99.90;;;;;;5121106;27;20335;-79
2022/05/29 03:24:27;;;;;;;12.27;4.00;;;9.20;99.90;;;;;;5117261;27;20288;-79
2022/05/29 03:27:02;;;;;;;21.67;4.70;;;9.20;99.90;;;;;;5125635;27;20225;-80
2022/05/29 03:29:36;;;;;;;18.17;4.83;;;9.20;99.90;;;;;;5124642;27;20226;-79
2022/05/29 03:32:06;;;;;;;17.83;4.60;;;9.20;99.90;;;;;;5103291;27;20331;-79
2022/05/29 03:34:33;;;;;;;10.50;4.60;;;9.30;99.90;;;;;;5102049;28;20232;-79
2022/05/29 03:36:59;;;;;;;16.80;4.33;;;9.20;99.90;;;;;;5099544;27;20228;-77
2022/05/29 03:39:26;;;;;;;11.40;4.10;;;9.20;99.90;;;;;;5114279;27;20337;-79
2022/05/29 03:41:54;;;;;;;14.93;4.07;;;9.20;99.90;;;;;;5122087;27;20224;-76
2022/05/29 03:44:23;;;;;;;16.83;4.47;;;9.20;99.90;;;;;;5124501;27;20224;-78
2022/05/29 03:46:50;;;;;;;14.50;4.20;;;9.20;99.90;;;;;;5099842;27;21050;-78
2022/05/29 03:49:22;;;;;;;12.23;4.60;;;9.20;99.90;;;;;;5119323;27;20293;-79
2022/05/29 03:51:49;;;;;;;13.37;3.97;;;9.20;99.90;;;;;;5104459;27;20244;-81
2022/05/29 03:54:16;;;;;;;16.80;5.57;;;9.30;99.90;;;;;;5102962;27;20224;-80
2022/05/29 03:56:43;;;;;;;15.73;5.83;;;9.30;99.90;;;;;;5105303;27;20285;-80
2022/05/29 03:59:10;;;;;;;13.00;5.10;;;9.20;99.90;;;;;;5125591;27;20309;-80
2022/05/29 04:01:37;;;;;;;13.80;4.80;;;9.20;99.90;;;;;;5108275;27;20319;-81
2022/05/29 04:04:04;;;;;;;12.13;5.17;;;9.20;99.90;;;;;;5129492;27;20225;-81
2022/05/29 04:06:34;;;;;;;16.13;4.67;;;9.20;99.90;;;;;;5110775;27;20224;-81
2022/05/29 04:12:04;;;;;;;14.43;5.13;;;9.20;99.90;;;;;;5135646;27;20224;-80
2022/05/29 04:14:32;;;;;;;12.13;4.43;;;9.20;99.90;;;;;;5106588;27;20266;-80
2022/05/29 04:17:00;;;;;;;12.87;4.57;;;9.20;99.90;;;;;;5111144;27;20277;-83
2022/05/29 04:19:28;;;;;;;17.17;5.10;;;9.20;99.90;;;;;;5114711;27;20228;-80
2022/05/29 04:21:57;;;;;;;19.00;4.67;;;9.20;99.90;;;;;;5128870;27;20228;-82
2022/05/29 04:24:24;;;;;;;15.60;4.30;;;9.20;99.90;;;;;;5108469;27;20514;-81
2022/05/29 04:26:51;;;;;;;15.17;4.40;;;9.20;99.90;;;;;;5108332;27;20225;-81
2022/05/29 04:29:23;;;;;;;11.10;4.20;;;9.20;99.90;;;;;;5131068;27;20245;-81
2022/05/29 04:34:34;;;;;;;18.67;4.93;;;9.20;99.90;;;;;;5100600;27;20241;-81
2022/05/29 04:37:02;;;;;;;13.90;4.13;;;9.20;99.90;;;;;;5124235;27;20336;-81
2022/05/29 04:39:32;;;;;;;13.03;4.00;;;9.20;99.90;;;;;;5125770;27;20304;-81
2022/05/29 04:42:00;;;;;;;14.33;4.40;;;9.20;99.90;;;;;;5127341;27;20234;-80
2022/05/29 04:44:29;;;;;;;13.37;4.13;;;9.20;99.90;;;;;;5104106;27;21208;-80
2022/05/29 04:46:57;;;;;;;15.50;4.57;;;9.20;99.90;;;;;;5105447;27;20223;-80
2022/05/29 04:49:23;;;;;;;15.57;4.53;;;9.20;99.90;;;;;;5106314;27;20217;-80
2022/05/29 04:51:50;;;;;;;13.70;4.40;;;9.30;99.90;;;;;;5104113;27;20256;-81
2022/05/29 04:54:18;;;;;;;16.07;4.50;;;9.30;99.90;;;;;;5119267;27;20236;-81
2022/05/29 04:56:46;;;;;;;16.33;4.87;;;9.30;99.90;;;;;;5122509;27;20231;-82
2022/05/29 04:59:13;;;;;;;12.70;4.70;;;9.30;99.90;;;;;;5122013;27;20728;-82
2022/05/29 05:01:42;;;;;;;17.60;4.93;;;9.30;99.90;;;;;;5121435;27;20658;-81
2022/05/29 05:04:10;;;;;;;15.90;4.83;;;9.30;99.90;;;;;;5097250;27;20237;-76
2022/05/29 05:06:38;;;;;;;18.63;4.87;;;9.30;99.90;;;;;;5122048;27;20248;-78
2022/05/29 05:09:05;;;;;;;16.23;4.73;;;9.40;99.90;;;;;;5110989;27;20219;-78
2022/05/29 05:11:34;;;;;;;14.83;4.47;;;9.40;99.90;;;;;;5116186;27;20316;-77
2022/05/29 05:14:00;;;;;;;13.23;3.83;;;9.40;99.90;;;;;;5111069;27;20248;-76
2022/05/29 05:16:27;;;;;;;17.97;5.20;;;9.40;99.90;;;;;;5129650;27;20240;-77
2022/05/29 05:18:54;;;;;;;15.23;5.10;;;9.40;99.90;;;;;;5123622;27;20252;-77
2022/05/29 05:21:21;;;;;;;18.07;5.47;;;9.40;99.90;;;;;;5108962;27;20221;-77
2022/05/29 05:23:48;;;;;;;13.73;4.80;;;9.40;99.90;;;;;;5107352;27;20224;-77
2022/05/29 05:26:16;;;;;;;13.57;4.87;;;9.40;99.90;;;;;;5108234;27;20300;-77
2022/05/29 05:28:44;;;;;;;18.67;5.17;;;9.50;99.90;;;;;;5115767;27;20227;-78
2022/05/29 05:31:12;;;;;;;20.07;5.53;;;9.50;99.90;;;;;;5128467;27;20223;-77
2022/05/29 05:33:39;;;;;;;17.83;4.70;;;9.50;99.90;;;;;;5122873;27;20380;-78
2022/05/29 05:36:06;;;;;;;20.37;5.67;;;9.50;99.90;;;;;;5097785;27;20232;-78
2022/05/29 05:38:33;;;;;;;12.37;4.03;;;9.50;99.90;;;;;;5109322;27;20242;-78
2022/05/29 05:40:59;;;;;;;20.43;5.33;;;9.60;99.90;;;;;;5122746;27;20312;-78
2022/05/29 05:43:31;;;;;;;16.87;5.03;;;9.60;99.90;;;;;;5127329;27;20281;-77
2022/05/29 05:45:59;;;;;;;16.07;5.00;;;9.60;99.90;;;;;;5128721;27;20225;-77
2022/05/29 05:48:29;;;;;;;11.23;4.53;;;9.70;99.90;;;;;;5101584;27;20230;-77
2022/05/29 05:50:56;;;;;;;16.20;5.43;;;9.70;99.90;;;;;;5108456;27;20235;-78
2022/05/29 05:53:23;;;;;;;15.17;4.93;;;9.80;99.90;;;;;;5122932;27;20221;-77
2022/05/29 05:55:50;;;;;;;15.87;4.73;;;9.80;99.90;;;;;;5117397;27;20221;-78
2022/05/29 05:58:17;;;;;;;14.20;4.80;;;9.90;99.90;;;;;;5126169;27;20307;-77
2022/05/29 06:00:44;;;;;;;22.67;5.70;;;9.90;99.90;;;;;;5131879;27;20225;-78
2022/05/29 06:03:12;;;;;;;15.03;5.17;;;10.00;99.90;;;;;;5124372;27;20769;-79
2022/05/29 06:05:39;;;;;;;13.83;4.67;;;10.00;99.90;;;;;;5106854;27;20293;-79
2022/05/29 06:08:06;;;;;;;10.77;4.17;;;10.10;99.90;;;;;;5108741;27;20225;-79
2022/05/29 06:10:34;;;;;;;11.70;3.97;;;10.10;99.90;;;;;;5130028;27;20225;-78
2022/05/29 06:13:01;;;;;;;14.97;4.13;;;10.20;99.90;;;;;;5136801;27;20240;-78
2022/05/29 06:15:28;;;;;;;16.27;4.47;;;10.20;99.90;;;;;;5126749;27;20631;-79
2022/05/29 06:17:56;;;;;;;10.70;4.20;;;10.20;99.90;;;;;;5109468;27;20304;-78
2022/05/29 06:20:25;;;;;;;15.60;4.80;;;10.20;99.90;;;;;;5128376;27;20221;-79
2022/05/29 06:22:52;;;;;;;13.83;4.03;;;10.30;99.90;;;;;;5126170;27;20344;-78
2022/05/29 06:25:20;;;;;;;17.20;5.07;;;10.30;99.90;;;;;;5124159;27;20258;-78
2022/05/29 06:27:47;;;;;;;15.93;4.80;;;10.40;99.90;;;;;;5118056;27;20225;-78
2022/05/29 06:30:17;;;;;;;15.13;4.50;;;10.50;99.90;;;;;;5117853;27;20225;-77
2022/05/29 06:32:44;;;;;;;14.03;4.10;;;10.60;99.90;;;;;;5127230;27;20217;-78
2022/05/29 06:35:13;;;;;;;14.33;4.37;;;10.70;99.90;;;;;;5125428;27;20308;-78
2022/05/29 06:37:42;;;;;;;13.97;4.33;;;10.70;99.90;;;;;;5105103;27;20637;-78
2022/05/29 06:40:12;;;;;;;14.40;4.47;;;10.80;99.90;;;;;;5127975;27;20860;-78
2022/05/29 06:42:38;;;;;;;12.23;4.37;;;10.90;99.90;;;;;;5126447;28;20727;-78
2022/05/29 06:45:07;;;;;;;8.73;3.50;;;11.10;99.90;;;;;;5121784;27;20254;-77
2022/05/29 06:47:37;;;;;;;10.20;3.27;;;11.20;99.90;;;;;;5118858;27;20307;-77
2022/05/29 06:50:05;;;;;;;8.20;3.23;;;11.30;99.90;;;;;;5110483;28;20632;-77
2022/05/29 06:52:32;;;;;;;11.80;3.80;;;11.40;99.90;;;;;;5121222;27;20245;-78
2022/05/29 06:55:01;;;;;;;9.83;3.50;;;11.50;99.90;;;;;;5098983;28;20244;-77
2022/05/29 07:08:30;;;;;;;15.43;4.10;;;12.10;99.90;;;;;;5114291;27;20300;-78
2022/05/29 07:11:08;;;;;;;12.07;3.90;;;12.20;99.90;;;;;;5123475;28;20234;-77
2022/05/29 07:13:38;;;;;;;11.20;3.47;;;12.20;99.90;;;;;;5124083;27;20222;-78
2022/05/29 07:16:06;;;;;;;7.77;3.07;;;12.30;99.90;;;;;;5118777;27;20414;-77
2022/05/29 07:18:33;;;;;;;11.00;3.47;;;12.40;99.90;;;;;;5105731;27;20542;-77
2022/05/29 07:21:01;;;;;;;11.63;3.27;;;12.50;99.90;;;;;;5121121;27;20229;-76
2022/05/29 07:23:27;;;;;;;5.83;2.80;;;12.60;99.90;;;;;;5112247;27;20226;-77
2022/05/29 07:25:54;;;;;;;10.10;3.10;;;12.60;99.90;;;;;;5123402;27;20253;-76
2022/05/29 07:28:23;;;;;;;8.50;3.20;;;12.70;99.90;;;;;;5120180;27;20224;-78
2022/05/29 07:30:54;;;;;;;8.37;2.87;;;12.80;99.90;;;;;;5099074;27;20707;-78
2022/05/29 07:33:21;;;;;;;8.50;2.70;;;12.80;99.90;;;;;;5103817;27;20977;-76
2022/05/29 07:35:48;;;;;;;7.70;2.53;;;12.80;99.90;;;;;;5120186;27;20224;-77
2022/05/29 07:38:15;;;;;;;8.43;3.10;;;12.90;99.90;;;;;;5112343;27;20225;-77
2022/05/29 07:40:42;;;;;;;4.90;2.40;;;12.90;99.90;;;;;;5121546;27;20236;-77
2022/05/29 07:43:21;;;;;;;6.13;2.97;;;13.00;99.90;;;;;;5125051;27;20245;-77
2022/05/29 07:45:52;;;;;;;10.37;2.70;;;13.00;99.90;;;;;;5125322;27;20220;-77
2022/05/29 07:48:19;;;;;;;8.10;2.80;;;13.00;99.90;;;;;;5126142;27;20310;-76
2022/05/29 07:50:46;;;;;;;8.80;2.97;;;13.00;99.90;;;;;;5121266;27;20350;-77
2022/05/29 07:53:14;;;;;;;6.63;2.90;;;13.00;99.90;;;;;;5108314;27;20226;-77
2022/05/29 07:55:41;;;;;;;11.13;3.13;;;13.00;99.90;;;;;;5110388;27;21816;-77
2022/05/29 07:58:08;;;;;;;10.30;3.27;;;12.90;99.90;;;;;;5113708;27;20235;-77
2022/05/29 08:00:36;;;;;;;6.83;2.67;;;12.90;99.90;;;;;;5124764;27;20314;-76
2022/05/29 08:03:05;;;;;;;7.67;2.70;;;12.90;99.90;;;;;;5107815;27;20569;-76
2022/05/29 08:05:35;;;;;;;10.60;3.13;;;13.00;99.90;;;;;;5117906;27;20998;-76
2022/05/29 08:08:04;;;;;;;7.60;3.30;;;13.00;99.90;;;;;;5098228;27;20628;-77
2022/05/29 08:10:32;;;;;;;7.33;2.77;;;13.10;99.90;;;;;;5121239;27;20231;-77
2022/05/29 08:12:59;;;;;;;9.13;3.10;;;13.10;99.90;;;;;;5126917;27;20261;-77
2022/05/29 08:15:26;;;;;;;10.20;3.10;;;13.20;99.90;;;;;;5100053;27;20268;-76
2022/05/29 08:17:53;;;;;;;8.30;3.30;;;13.20;99.90;;;;;;5115804;27;20228;-77
2022/05/29 08:20:21;;;;;;;8.40;3.50;;;13.30;99.90;;;;;;5117765;27;20220;-77
2022/05/29 08:22:47;;;;;;;9.23;3.77;;;13.40;99.90;;;;;;5121753;27;20224;-76
2022/05/29 08:30:46;;;;;;;12.67;3.60;;;13.70;99.90;;;;;;5096716;27;20210;-76
2022/05/29 08:33:15;;;;;;;11.13;3.53;;;13.90;99.90;;;;;;5118455;27;20729;-77
2022/05/29 08:35:47;;;;;;;11.37;3.23;;;14.10;99.90;;;;;;5097404;27;20260;-77
2022/05/29 08:38:16;;;;;;;15.83;3.83;;;14.30;99.90;;;;;;5120461;27;20227;-77
2022/05/29 08:40:46;;;;;;;10.40;3.43;;;14.40;99.90;;;;;;5121130;27;20225;-76
2022/05/29 08:43:19;;;;;;;12.87;3.47;;;14.50;99.90;;;;;;5104720;27;20218;-77
2022/05/29 08:45:49;;;;;;;8.17;3.30;;;14.70;99.90;;;;;;5123460;27;20252;-77
2022/05/29 08:48:19;;;;;;;9.33;3.20;;;14.80;99.90;;;;;;5126385;27;20225;-77
2022/05/29 08:50:57;;;;;;;7.53;3.20;;;14.90;99.90;;;;;;5125692;27;20220;-77
2022/05/29 08:53:34;;;;;;;6.83;3.00;;;15.10;99.90;;;;;;5109192;27;20324;-77
2022/05/29 08:56:09;;;;;;;9.53;3.27;;;15.20;99.90;;;;;;5127388;27;20295;-77
2022/05/29 08:58:42;;;;;;;9.53;3.13;;;15.30;99.90;;;;;;5127303;27;20231;-77
2022/05/29 09:01:16;;;;;;;10.77;3.20;;;15.40;99.90;;;;;;5107256;27;20230;-77
2022/05/29 09:03:52;;;;;;;13.20;3.67;;;15.40;99.90;;;;;;5116994;27;20294;-77
2022/05/29 09:06:28;;;;;;;8.30;3.20;;;15.40;99.90;;;;;;5109409;27;20272;-77
2022/05/29 09:09:02;;;;;;;11.53;2.90;;;15.50;99.90;;;;;;5127723;27;20227;-77
2022/05/29 09:11:33;;;;;;;14.23;3.73;;;15.50;99.90;;;;;;5130030;27;20350;-77
2022/05/29 09:14:09;;;;;;;9.40;2.60;;;15.60;99.90;;;;;;5126177;27;20226;-80
2022/05/29 09:16:43;;;;;;;10.60;3.10;;;15.60;99.80;;;;;;5110936;27;20224;-81
2022/05/29 09:19:13;;;;;;;7.20;2.77;;;15.60;99.80;;;;;;5121026;27;20435;-80
2022/05/29 09:21:52;;;;;;;8.00;2.47;;;15.70;99.90;;;;;;5122014;27;20575;-80
2022/05/29 09:24:48;;;;;;;9.20;2.87;;;15.80;99.50;;;;;;5125805;27;20704;-81
2022/05/29 09:27:16;;;;;;;8.20;2.63;;;16.00;99.00;;;;;;5126904;27;20228;-79
2022/05/29 09:29:43;;;;;;;7.20;2.40;;;16.20;99.20;;;;;;5125901;27;20323;-80
2022/05/29 09:32:15;;;;;;;6.67;2.37;;;16.30;98.90;;;;;;5114801;27;20222;-80
2022/05/29 09:34:43;;;;;;;5.60;1.97;;;16.50;97.80;;;;;;5121163;27;20227;-79
2022/05/29 09:37:19;;;;;;;4.70;2.03;;;16.60;97.80;;;;;;5125341;27;20232;-80
2022/05/29 09:39:53;;;;;;;9.60;2.77;;;16.70;97.10;;;;;;5121631;27;20233;-80
2022/05/29 09:42:24;;;;;;;7.33;3.17;;;16.80;97.40;;;;;;5124925;27;20224;-81
2022/05/29 09:45:09;;;;;;;6.27;2.30;;;16.90;97.50;;;;;;5135544;27;20425;-80
2022/05/29 09:50:22;;;;;;;6.73;2.33;;;17.00;97.10;;;;;;5124659;27;20220;-80
2022/05/29 09:52:51;;;;;;;6.03;2.07;;;17.10;97.00;;;;;;5133595;27;20225;-80
2022/05/29 09:55:25;;;;;;;6.70;2.10;;;17.20;96.60;;;;;;5129241;27;20331;-80
2022/05/29 09:57:56;;;;;;;5.50;2.20;;;17.30;96.40;;;;;;5132093;27;20253;-81
2022/05/29 10:00:28;;;;;;;4.60;1.83;;;17.30;96.40;;;;;;5121116;27;20315;-81
2022/05/29 10:02:56;;;;;;;4.83;2.37;;;17.40;96.20;;;;;;5138896;27;20220;-80
2022/05/29 10:05:26;;;;;;;5.60;2.30;;;17.50;96.20;;;;;;5130553;27;20234;-79
2022/05/29 10:07:55;;;;;;;7.17;2.20;;;17.50;96.00;;;;;;5127789;27;20284;-80
2022/05/29 10:10:31;;;;;;;6.83;2.50;;;17.40;95.70;;;;;;5132037;27;20701;-80
2022/05/29 10:12:59;;;;;;;6.77;2.40;;;17.30;95.00;;;;;;5133452;27;20275;-81
2022/05/29 10:15:39;;;;;;;5.37;1.97;;;17.20;95.60;;;;;;5131128;27;20225;-80
2022/05/29 10:18:32;;;;;;;7.57;2.50;;;17.10;95.40;;;;;;5119594;27;20715;-79
2022/05/29 10:21:09;;;;;;;6.27;1.97;;;17.00;95.70;;;;;;5120332;27;20240;-80
2022/05/29 10:23:38;;;;;;;6.47;2.33;;;17.00;95.90;;;;;;5105770;27;20230;-81
2022/05/29 10:26:13;;;;;;;7.67;2.30;;;16.90;95.80;;;;;;5124830;27;20223;-80
2022/05/29 10:28:42;;;;;;;8.33;2.30;;;16.90;96.30;;;;;;5128480;27;20570;-80
2022/05/29 10:31:11;;;;;;;4.10;2.10;;;16.90;96.20;;;;;;5133329;27;20231;-81
2022/05/29 10:33:38;;;;;;;4.47;1.93;;;16.90;96.20;;;;;;5129548;27;20246;-80
2022/05/29 10:36:14;;;;;;;6.87;2.10;;;16.80;96.20;;;;;;5111285;27;20286;-80
2022/05/29 10:38:43;;;;;;;4.93;2.10;;;16.70;96.00;;;;;;5127924;27;20660;-80
2022/05/29 10:41:11;;;;;;;5.93;2.13;;;16.70;96.30;;;;;;5103993;28;20239;-80
2022/05/29 10:43:44;;;;;;;7.60;2.07;;;16.70;96.60;;;;;;5110608;28;20609;-80
2022/05/29 10:46:18;;;;;;;4.80;1.87;;;16.60;96.20;;;;;;5127233;27;20232;-80
2022/05/29 10:49:16;;;;;;;5.37;2.10;;;16.60;96.50;;;;;;5133433;27;20228;-80
2022/05/29 10:52:04;;;;;;;5.70;2.33;;;16.60;96.50;;;;;;5103261;27;20639;-80
2022/05/29 10:54:46;;;;;;;6.20;2.37;;;16.60;96.40;;;;;;5136223;27;20330;-80
2022/05/29 10:57:31;;;;;;;8.63;2.23;;;16.60;96.50;;;;;;5114965;27;21058;-80
2022/05/29 11:00:29;;;;;;;6.00;2.43;;;16.70;96.70;;;;;;5140878;27;20694;-79
2022/05/29 11:03:21;;;;;;;5.00;2.03;;;16.70;96.40;;;;;;5109619;27;20224;-80
2022/05/29 11:06:19;;;;;;;9.27;2.47;;;16.80;96.10;;;;;;5133850;27;20221;-80
2022/05/29 11:08:59;;;;;;;6.13;2.63;;;16.90;95.80;;;;;;5115059;27;20685;-81
2022/05/29 11:11:39;;;;;;;7.50;2.10;;;17.00;95.30;;;;;;5135108;27;20221;-81
2022/05/29 11:14:34;;;;;;;5.37;2.00;;;17.00;95.20;;;;;;5139494;27;20305;-80
2022/05/29 11:17:07;;;;;;;5.87;2.30;;;16.90;94.90;;;;;;5121299;27;20228;-80
2022/05/29 11:20:05;;;;;;;7.30;2.13;;;16.80;95.00;;;;;;5134070;27;20229;-80
2022/05/29 11:22:40;;;;;;;7.10;2.37;;;16.70;95.00;;;;;;5136179;27;20345;-80
2022/05/29 11:25:28;;;;;;;5.63;2.30;;;16.60;95.50;;;;;;5114152;27;20236;-80
2022/05/29 11:28:21;;;;;;;6.83;2.40;;;16.60;95.40;;;;;;5115607;27;20274;-80
2022/05/29 11:31:04;;;;;;;7.70;2.30;;;16.40;95.20;;;;;;5124249;27;20315;-80
2022/05/29 11:33:52;;;;;;;6.67;2.13;;;16.30;95.30;;;;;;5125159;27;20227;-79
2022/05/29 11:36:32;;;;;;;5.23;1.90;;;16.10;95.50;;;;;;5111055;27;20230;-80
2022/05/29 11:39:25;;;;;;;8.23;2.13;;;16.00;95.50;;;;;;5122880;27;20226;-81
2022/05/29 11:41:57;;;;;;;5.73;1.63;;;15.90;95.30;;;;;;5130111;27;20288;-79
2022/05/29 11:44:31;;;;;;;8.40;2.00;;;15.90;95.50;;;;;;5128111;27;22976;-80
2022/05/29 11:52:46;;;;;;;8.20;2.23;;;15.70;95.70;;;;;;5119810;27;20224;-80
2022/05/29 11:55:16;;;;;;;5.87;2.50;;;15.70;95.80;;;;;;5122551;27;20231;-80
2022/05/29 11:57:48;;;;;;;6.43;2.00;;;15.60;96.00;;;;;;5102836;27;20224;-79
2022/05/29 12:00:43;;;;;;;8.07;2.27;;;15.60;95.90;;;;;;5127406;27;20213;-79
2022/05/29 12:03:21;;;;;;;8.23;1.93;;;15.60;96.60;;;;;;5105875;27;20350;-79
2022/05/29 12:05:53;;;;;;;5.30;1.83;;;15.60;97.90;;;;;;5128619;27;20759;-79
2022/05/29 12:08:29;;;;;;;5.50;1.93;;;15.50;98.10;;;;;;5124289;27;20228;-79
2022/05/29 12:11:20;;;;;;;5.73;2.00;;;15.50;97.90;;;;;;5124398;27;20233;-79
2022/05/29 12:13:55;;;;;;;5.50;1.57;;;15.40;97.20;;;;;;5118776;27;20334;-79
2022/05/29 12:16:28;;;;;;;3.93;1.60;;;15.40;96.90;;;;;;5126336;27;20613;-79
2022/05/29 12:18:58;;;;;;;4.83;1.70;;;15.30;96.70;;;;;;5118599;27;20621;-79
2022/05/29 12:21:31;;;;;;;5.90;2.07;;;15.20;96.70;;;;;;5119767;27;20233;-79
2022/05/29 12:24:01;;;;;;;5.93;2.03;;;15.10;96.70;;;;;;5104858;27;20238;-80
2022/05/29 12:26:35;;;;;;;2.37;1.37;;;15.00;96.90;;;;;;5105363;27;20307;-79
2022/05/29 12:29:06;;;;;;;4.77;2.20;;;15.00;97.00;;;;;;5122390;27;20239;-79
2022/05/29 12:31:38;;;;;;;7.77;2.37;;;14.90;97.50;;;;;;5104085;27;20235;-80
2022/05/29 12:34:05;;;;;;;6.40;2.20;;;14.90;97.20;;;;;;5124807;27;20232;-79
2022/05/29 12:37:04;;;;;;;6.63;2.37;;;14.90;97.20;;;;;;5125394;27;20223;-80
2022/05/29 12:39:46;;;;;;;4.97;1.60;;;14.80;97.10;;;;;;5111073;27;20229;-80
2022/05/29 12:42:35;;;;;;;5.47;1.77;;;14.80;96.70;;;;;;5122018;27;20229;-79
2022/05/29 12:45:37;;;;;;;4.40;1.63;;;14.80;96.80;;;;;;5120815;27;20323;-79
2022/05/29 12:48:35;;;;;;;7.40;2.23;;;14.80;96.90;;;;;;5102532;27;20872;-80
2022/05/29 12:51:14;;;;;;;4.77;2.00;;;14.90;96.90;;;;;;5105441;27;20288;-80
2022/05/29 12:54:17;;;;;;;5.53;2.03;;;14.90;96.80;;;;;;5120407;27;20229;-78
2022/05/29 12:57:29;;;;;;;5.87;1.80;;;14.90;96.60;;;;;;5118939;27;20285;-77
2022/05/29 13:00:41;;;;;;;5.77;1.97;;;15.00;96.50;;;;;;5083176;27;20336;-76
2022/05/29 13:03:54;;;;;;;5.67;1.80;;;15.00;96.50;;;;;;5097773;27;20227;-77
2022/05/29 13:06:36;;;;;;;5.53;1.90;;;15.00;96.10;;;;;;5115816;27;20259;-76
2022/05/29 13:09:19;;;;;;;5.97;1.60;;;15.10;96.30;;;;;;5118427;27;20236;-77
2022/05/29 13:11:50;;;;;;;7.60;2.43;;;15.10;96.10;;;;;;5125762;27;20227;-76
2022/05/29 13:14:20;;;;;;;6.83;1.70;;;15.10;96.20;;;;;;5120267;27;20309;-77
2022/05/29 13:16:59;;;;;;;2.60;1.30;;;15.20;96.30;;;;;;5125470;27;20311;-77
2022/05/29 13:19:58;;;;;;;3.63;1.50;;;15.30;96.30;;;;;;5093117;27;20664;-76
2022/05/29 13:23:01;;;;;;;4.37;1.47;;;15.40;96.40;;;;;;5110920;27;20747;-77
2022/05/29 13:25:32;;;;;;;3.40;1.50;;;15.50;96.20;;;;;;5105381;27;20227;-76
2022/05/29 13:28:00;;;;;;;6.50;1.97;;;15.60;96.40;;;;;;5099298;27;20254;-77
2022/05/29 13:31:09;;;;;;;6.43;1.80;;;15.80;96.10;;;;;;5113899;27;20219;-77
2022/05/29 13:33:58;;;;;;;5.10;1.53;;;15.90;95.30;;;;;;5114584;27;20788;-78
2022/05/29 13:37:01;;;;;;;3.37;1.43;;;16.10;94.70;;;;;;5117072;27;20310;-77
2022/05/29 13:39:35;;;;;;;3.40;1.57;;;16.20;94.90;;;;;;5113131;27;20637;-77
2022/05/29 13:42:06;;;;;;;5.80;1.90;;;16.30;95.00;;;;;;5126306;27;20320;-75
2022/05/29 13:44:35;;;;;;;4.53;1.40;;;16.30;94.90;;;;;;5119889;27;20225;-77
2022/05/29 13:47:31;;;;;;;3.87;1.40;;;16.40;94.80;;;;;;5122236;27;20228;-77
2022/05/29 13:50:02;;;;;;;5.70;1.63;;;16.40;94.50;;;;;;5120924;27;20228;-75
2022/05/29 13:52:32;;;;;;;3.30;1.53;;;16.40;94.70;;;;;;5100309;27;20231;-77